Time;durP1;ratioP1;P1;durP2;ratioP2;P2;SDS_P1;SDS_P2;PMS_P1;PMS_P2;Temp;Humidity;BMP_temperature;BMP_pressure;BME280_temperature;BME280_humidity;BME280_pressure;Samples;Min_cycle;Max_cycle;Signal;HPM_P1;HPM_P2
2022/06/15 00:01:32;;;;;;;4.15;2.55;;;;;;;24.20;42.81;102168.09;5065468;28;21915;-74
2022/06/15 00:04:00;;;;;;;3.72;2.67;;;;;;;24.21;42.82;102162.59;5067836;28;20498;-73
2022/06/15 00:06:29;;;;;;;3.88;2.30;;;;;;;24.19;42.81;102172.59;5070139;28;20044;-75
2022/06/15 00:08:57;;;;;;;3.80;2.75;;;;;;;24.19;42.83;102158.44;5072433;28;20587;-75
2022/06/15 00:11:30;;;;;;;3.50;2.55;;;;;;;24.21;42.66;102165.25;5072272;28;20115;-75
2022/06/15 00:13:58;;;;;;;3.15;2.55;;;;;;;24.21;42.86;102159.09;5068746;28;20036;-75
2022/06/15 00:16:24;;;;;;;3.80;2.50;;;;;;;24.16;42.94;102162.28;5051646;28;20120;-74
2022/06/15 00:18:49;;;;;;;2.92;2.38;;;;;;;24.13;43.07;102160.00;5071834;28;20028;-74
2022/06/15 00:21:17;;;;;;;2.63;2.40;;;;;;;24.14;42.79;102148.34;5075251;28;20061;-75
2022/06/15 00:23:43;;;;;;;6.22;2.50;;;;;;;24.03;43.07;102151.38;5072646;28;20619;-74
2022/06/15 00:26:08;;;;;;;4.10;2.50;;;;;;;24.14;42.98;102158.16;5070818;28;20476;-73
2022/06/15 00:28:35;;;;;;;3.05;2.40;;;;;;;24.09;43.01;102158.69;5066096;28;20074;-75
2022/06/15 00:31:01;;;;;;;3.00;2.42;;;;;;;24.14;42.90;102160.81;5071898;28;20040;-74
2022/06/15 00:33:27;;;;;;;3.35;2.30;;;;;;;24.05;42.87;102152.88;5051444;28;20582;-73
2022/06/15 00:36:05;;;;;;;2.80;2.30;;;;;;;24.09;42.93;102159.53;5064662;28;20051;-73
2022/06/15 00:38:36;;;;;;;2.65;2.30;;;;;;;24.08;42.96;102152.53;5062516;28;20043;-73
2022/06/15 00:41:05;;;;;;;2.58;2.33;;;;;;;24.04;42.96;102148.56;5064465;28;20060;-74
2022/06/15 00:43:39;;;;;;;2.83;2.38;;;;;;;24.02;43.07;102153.22;5046323;28;20055;-73
2022/06/15 00:46:39;;;;;;;3.00;2.30;;;;;;;23.92;43.41;102147.31;5049627;28;20036;-73
2022/06/15 00:49:21;;;;;;;;;;;;;;;24.00;43.11;102152.56;5064529;28;20042;-73
2022/06/15 00:51:51;;;;;;;3.15;2.28;;;;;;;23.99;42.92;102142.09;5068030;28;19919;-73
2022/06/15 00:54:17;;;;;;;;;;;;;;;23.98;43.07;102140.44;5064549;28;20143;-73
2022/06/15 00:56:43;;;;;;;3.25;2.30;;;;;;;24.02;43.08;102145.25;5069804;28;19920;-73
2022/06/15 00:59:22;;;;;;;3.95;2.40;;;;;;;23.94;43.17;102139.16;5066062;28;20040;-75
2022/06/15 01:01:48;;;;;;;2.97;2.38;;;;;;;23.96;43.08;102145.13;5066341;28;20109;-73
2022/06/15 01:04:17;;;;;;;2.78;2.13;;;;;;;23.94;43.18;102147.97;5067104;28;20040;-72
2022/06/15 01:07:12;;;;;;;4.07;2.65;;;;;;;23.92;43.28;102143.81;5067719;28;20036;-73
2022/06/15 01:09:48;;;;;;;3.17;2.30;;;;;;;23.88;43.57;102140.69;4982224;28;20409;-76
2022/06/15 01:12:28;;;;;;;3.45;2.40;;;;;;;23.83;43.39;102143.03;5070087;28;20040;-75
2022/06/15 01:15:03;;;;;;;3.30;2.60;;;;;;;23.81;43.50;102143.19;5071116;28;20492;-76
2022/06/15 01:17:43;;;;;;;2.30;2.13;;;;;;;23.90;43.17;102140.53;5061308;28;20031;-75
2022/06/15 01:20:25;;;;;;;3.25;2.30;;;;;;;23.92;43.17;102142.00;5064374;28;20043;-73
2022/06/15 01:23:26;;;;;;;3.70;2.53;;;;;;;23.85;43.20;102149.00;5070326;28;20028;-76
2022/06/15 01:26:20;;;;;;;2.72;2.40;;;;;;;23.91;43.32;102147.50;5071273;28;20155;-75
2022/06/15 01:29:34;;;;;;;3.88;2.25;;;;;;;23.80;43.21;102138.88;5046624;28;20123;-75
2022/06/15 01:32:10;;;;;;;3.97;2.30;;;;;;;23.81;43.37;102140.53;5061387;28;20028;-75
2022/06/15 01:34:41;;;;;;;2.65;2.30;;;;;;;23.81;43.39;102137.88;5064294;28;20068;-75
2022/06/15 01:37:34;;;;;;;2.85;2.30;;;;;;;23.75;43.68;102135.94;5052905;28;20497;-76
2022/06/15 01:40:20;;;;;;;2.90;2.40;;;;;;;23.75;43.53;102133.28;5072113;28;20528;-75
2022/06/15 01:42:56;;;;;;;4.97;2.65;;;;;;;23.70;43.44;102129.50;5048259;28;20760;-74
2022/06/15 01:45:27;;;;;;;3.03;2.30;;;;;;;23.74;43.36;102133.44;5062492;28;20043;-73
2022/06/15 01:47:57;;;;;;;3.10;2.60;;;;;;;23.70;43.55;102134.81;5059798;28;20039;-74
2022/06/15 01:50:24;;;;;;;;;;;;;;;23.70;43.77;102132.16;5046228;28;20167;-74
2022/06/15 01:53:14;;;;;;;2.55;2.20;;;;;;;23.78;43.39;102126.78;5062080;28;20104;-74
2022/06/15 01:55:50;;;;;;;3.00;2.45;;;;;;;23.68;43.65;102129.63;5048736;28;20081;-74
2022/06/15 01:58:18;;;;;;;3.08;2.30;;;;;;;23.64;43.62;102119.53;5070590;28;20031;-74
2022/06/15 02:00:56;;;;;;;2.50;2.28;;;;;;;23.59;43.52;102129.88;5063880;28;20036;-74
2022/06/15 02:03:43;;;;;;;4.18;2.35;;;;;;;23.70;43.42;102127.66;5048840;28;20471;-74
2022/06/15 02:06:25;;;;;;;3.67;2.50;;;;;;;23.56;43.89;102131.00;5045818;28;20373;-74
2022/06/15 02:09:03;;;;;;;2.63;2.42;;;;;;;23.54;43.81;102121.56;5055195;28;20032;-74
2022/06/15 02:11:37;;;;;;;2.78;2.40;;;;;;;23.59;43.77;102121.88;5064814;28;20522;-74
2022/06/15 02:14:08;;;;;;;3.65;2.28;;;;;;;23.56;43.61;102122.22;5067314;28;20042;-74
2022/06/15 02:16:39;;;;;;;3.28;2.38;;;;;;;23.62;43.45;102116.22;5051601;28;20675;-74
2022/06/15 02:19:13;;;;;;;3.80;2.30;;;;;;;23.60;43.41;102115.56;5050423;28;20032;-74
2022/06/15 02:21:42;;;;;;;2.63;2.40;;;;;;;23.62;43.45;102117.03;5061202;28;20056;-74
2022/06/15 02:24:11;;;;;;;2.58;2.00;;;;;;;23.57;43.57;102115.91;5051627;28;20028;-74
2022/06/15 02:26:38;;;;;;;2.97;2.13;;;;;;;23.56;43.75;102112.41;5053913;28;20065;-74
2022/06/15 02:29:18;;;;;;;3.00;2.60;;;;;;;23.48;43.82;102115.91;5065289;28;20117;-74
2022/06/15 02:31:48;;;;;;;2.33;2.10;;;;;;;23.50;43.89;102113.06;5062981;28;20040;-74
2022/06/15 02:34:15;;;;;;;3.17;2.30;;;;;;;23.39;44.19;102113.47;5054985;28;20040;-74
2022/06/15 02:36:43;;;;;;;3.15;2.20;;;;;;;23.42;44.02;102116.59;5063202;28;20024;-73
2022/06/15 02:39:10;;;;;;;2.70;2.30;;;;;;;23.51;43.66;102120.88;5064759;28;20067;-74
2022/06/15 02:41:36;;;;;;;2.85;2.33;;;;;;;23.50;43.86;102113.91;5052050;28;20381;-74
2022/06/15 02:44:07;;;;;;;2.40;2.10;;;;;;;23.46;43.71;102109.09;5054325;28;20388;-73
2022/06/15 02:46:37;;;;;;;3.20;2.20;;;;;;;23.36;44.02;102114.66;5066717;28;20044;-74
2022/06/15 02:49:03;;;;;;;2.25;2.10;;;;;;;23.48;43.59;102110.59;5061356;28;20039;-74
2022/06/15 02:51:46;;;;;;;3.33;2.67;;;;;;;23.43;43.87;102109.47;5064814;28;20056;-74
2022/06/15 02:54:20;;;;;;;2.45;2.03;;;;;;;23.43;43.76;102117.44;5067272;28;20058;-74
2022/06/15 02:56:46;;;;;;;2.70;2.10;;;;;;;23.30;44.32;102106.50;5070861;28;20403;-74
2022/06/15 02:59:12;;;;;;;3.58;2.33;;;;;;;23.42;43.80;102111.28;5056900;28;20906;-74
2022/06/15 03:01:40;;;;;;;3.30;2.17;;;;;;;23.28;44.34;102108.50;5057143;28;20652;-74
2022/06/15 03:04:06;;;;;;;2.53;2.33;;;;;;;23.34;43.99;102105.16;5053187;28;20036;-73
2022/06/15 03:06:32;;;;;;;3.47;2.50;;;;;;;23.38;43.90;102109.16;5068086;28;20043;-74
2022/06/15 03:09:07;;;;;;;2.75;2.00;;;;;;;23.34;44.26;102106.03;5067308;28;20048;-74
2022/06/15 03:11:41;;;;;;;3.45;2.00;;;;;;;23.34;43.99;102103.38;5070550;28;20043;-74
2022/06/15 03:14:14;;;;;;;3.47;2.30;;;;;;;23.38;43.86;102101.19;5067646;28;20105;-74
2022/06/15 03:16:47;;;;;;;3.33;2.22;;;;;;;23.25;44.11;102101.72;5064755;28;20123;-74
2022/06/15 03:19:14;;;;;;;2.42;1.95;;;;;;;23.33;43.93;102090.22;5050242;28;20032;-74
2022/06/15 03:21:41;;;;;;;4.13;2.15;;;;;;;23.26;44.01;102095.41;5057853;28;20047;-74
2022/06/15 03:24:07;;;;;;;2.70;2.10;;;;;;;23.39;43.92;102093.03;5052093;28;20408;-74
2022/06/15 03:26:33;;;;;;;4.13;2.50;;;;;;;23.36;43.58;102088.06;5052507;28;20506;-74
2022/06/15 03:28:59;;;;;;;3.70;2.42;;;;;;;23.29;43.93;102089.75;5058312;28;20035;-74
2022/06/15 03:31:29;;;;;;;3.47;2.50;;;;;;;23.22;44.27;102091.44;5052604;28;20043;-74
2022/06/15 03:33:55;;;;;;;4.25;2.60;;;;;;;23.26;44.18;102091.91;5057691;28;20045;-74
2022/06/15 03:36:23;;;;;;;2.63;2.17;;;;;;;23.21;43.98;102073.84;5065741;28;20035;-74
2022/06/15 03:38:48;;;;;;;2.90;2.35;;;;;;;23.18;44.21;102084.81;5067577;28;20771;-74
2022/06/15 03:41:29;;;;;;;2.38;2.00;;;;;;;23.31;43.84;102086.91;5056645;28;20083;-74
2022/06/15 03:43:55;;;;;;;3.97;2.30;;;;;;;23.25;44.11;102095.56;5067632;28;20031;-74
2022/06/15 03:46:24;;;;;;;2.33;2.10;;;;;;;23.24;43.98;102089.44;5064430;28;20479;-73
2022/06/15 03:48:52;;;;;;;2.30;2.10;;;;;;;23.32;43.87;102093.88;5062531;28;20170;-74
2022/06/15 03:51:18;;;;;;;3.97;2.30;;;;;;;23.20;44.23;102086.31;5068780;28;20044;-74
2022/06/15 03:53:53;;;;;;;3.78;2.35;;;;;;;23.18;43.89;102071.53;5058182;28;20035;-74
2022/06/15 03:56:19;;;;;;;4.00;2.42;;;;;;;23.29;43.72;102091.56;5068086;28;20051;-74
2022/06/15 03:58:46;;;;;;;3.80;2.25;;;;;;;23.30;43.84;102090.56;5050756;28;20032;-74
2022/06/15 04:01:13;;;;;;;2.35;2.05;;;;;;;23.29;44.06;102088.91;5054758;28;20039;-74
2022/06/15 04:03:39;;;;;;;2.42;2.15;;;;;;;23.24;44.04;102085.94;5050996;28;20039;-74
2022/06/15 04:06:12;;;;;;;4.10;2.15;;;;;;;23.13;44.19;102084.47;5057469;28;20530;-74
2022/06/15 04:08:42;;;;;;;2.80;2.08;;;;;;;23.16;44.27;102092.09;5051995;28;20127;-74
2022/06/15 04:14:13;;;;;;;2.80;1.97;;;;;;;23.24;43.95;102093.91;5066723;28;20086;-74
2022/06/15 04:16:43;;;;;;;3.78;1.90;;;;;;;23.23;43.99;102089.59;5056245;28;20139;-74
2022/06/15 04:19:11;;;;;;;2.10;1.90;;;;;;;23.20;43.97;102083.63;5061412;28;20102;-73
2022/06/15 04:21:39;;;;;;;4.07;2.25;;;;;;;23.21;43.85;102087.13;5054541;28;20135;-74
2022/06/15 04:24:11;;;;;;;3.22;2.25;;;;;;;23.20;44.14;102080.16;5071018;28;20659;-74
2022/06/15 04:26:40;;;;;;;2.65;2.30;;;;;;;23.05;43.88;102066.75;5054461;28;20487;-74
2022/06/15 04:29:06;;;;;;;2.25;2.05;;;;;;;23.08;44.25;102081.50;5051313;28;20036;-74
2022/06/15 04:31:32;;;;;;;3.17;2.15;;;;;;;23.27;43.73;102088.25;5068043;28;20109;-74
2022/06/15 04:33:58;;;;;;;3.03;2.03;;;;;;;23.16;43.67;102065.53;5061611;28;20031;-74
2022/06/15 04:36:27;;;;;;;2.95;2.22;;;;;;;23.18;43.99;102090.13;5053961;28;20151;-74
2022/06/15 04:39:00;;;;;;;3.40;2.13;;;;;;;23.20;43.82;102090.78;5063840;28;20036;-74
2022/06/15 04:41:36;;;;;;;4.13;2.58;;;;;;;23.14;44.26;102079.00;5050876;28;20028;-73
2022/06/15 04:44:06;;;;;;;2.33;2.13;;;;;;;23.07;44.44;102079.84;5054559;28;20043;-74
2022/06/15 04:46:34;;;;;;;2.97;2.42;;;;;;;23.08;44.50;102087.66;5070266;28;20462;-74
2022/06/15 04:49:00;;;;;;;4.47;2.28;;;;;;;23.06;44.16;102089.66;5069928;28;20070;-74
2022/06/15 04:51:40;;;;;;;2.80;2.22;;;;;;;23.09;44.27;102097.28;5051943;28;20095;-74
2022/06/15 04:54:09;;;;;;;3.47;2.10;;;;;;;23.12;44.19;102098.78;5070540;28;20047;-74
2022/06/15 04:56:39;;;;;;;1.90;1.80;;;;;;;23.15;43.90;102104.56;5067415;28;20036;-74
2022/06/15 04:59:08;;;;;;;4.18;2.35;;;;;;;23.14;43.90;102102.06;5064344;28;20044;-74
2022/06/15 05:01:35;;;;;;;2.50;2.25;;;;;;;23.08;44.05;102106.25;5054695;28;20216;-74
2022/06/15 05:04:01;;;;;;;2.20;2.00;;;;;;;23.06;44.16;102105.59;5053048;28;20036;-74
2022/06/15 05:06:27;;;;;;;3.17;2.33;;;;;;;23.09;44.31;102099.94;5050110;28;20470;-74
2022/06/15 05:08:54;;;;;;;2.33;2.05;;;;;;;23.17;44.08;102105.25;5047913;28;20123;-74
2022/06/15 05:11:19;;;;;;;2.50;2.00;;;;;;;23.08;44.01;102110.75;5067260;28;20383;-74
2022/06/15 05:13:45;;;;;;;2.28;1.98;;;;;;;23.21;43.75;102106.56;5069074;28;20040;-74
2022/06/15 05:16:11;;;;;;;2.80;2.17;;;;;;;23.21;43.91;102113.69;5062960;28;20064;-75
2022/06/15 05:18:37;;;;;;;3.05;2.30;;;;;;;23.18;43.78;102111.38;5065869;28;20064;-73
2022/06/15 05:21:08;;;;;;;4.28;1.92;;;;;;;23.17;43.95;102112.38;5054383;28;20577;-74
2022/06/15 05:23:34;;;;;;;3.35;2.10;;;;;;;23.18;43.76;102109.56;5063205;28;20040;-74
2022/06/15 05:26:10;;;;;;;2.78;2.13;;;;;;;23.23;43.91;102108.22;5066214;28;20042;-74
2022/06/15 05:28:41;;;;;;;2.22;2.00;;;;;;;23.21;43.70;102105.72;5062284;28;20040;-74
2022/06/15 05:31:14;;;;;;;4.28;2.30;;;;;;;23.13;43.83;102101.25;5052279;28;20044;-74
2022/06/15 05:33:40;;;;;;;2.40;2.03;;;;;;;23.21;44.01;102105.72;5050691;28;20024;-74
2022/06/15 05:36:13;;;;;;;2.15;1.95;;;;;;;23.12;44.06;102099.59;5052901;28;20036;-74
2022/06/15 05:38:39;;;;;;;2.22;2.05;;;;;;;23.16;43.87;102103.59;5072438;28;20371;-74
2022/06/15 05:41:06;;;;;;;2.25;2.05;;;;;;;23.20;43.76;102104.91;5060396;28;20757;-73
2022/06/15 05:43:35;;;;;;;2.08;1.80;;;;;;;23.18;43.92;102100.75;5055397;28;20042;-74
2022/06/15 05:46:14;;;;;;;4.10;2.28;;;;;;;23.20;43.97;102109.38;5069116;28;20429;-74
2022/06/15 05:48:42;;;;;;;2.10;1.90;;;;;;;23.24;43.82;102110.69;5062918;28;20231;-74
2022/06/15 05:51:07;;;;;;;2.70;2.22;;;;;;;23.28;43.49;102113.84;5066914;28;20504;-74
2022/06/15 05:53:33;;;;;;;3.85;2.25;;;;;;;23.23;43.74;102114.34;5050572;28;20761;-74
2022/06/15 05:55:59;;;;;;;3.88;2.15;;;;;;;23.27;43.49;102120.97;5069437;28;20032;-74
2022/06/15 05:58:24;;;;;;;4.00;2.17;;;;;;;23.35;43.61;102117.47;5063686;28;20036;-74
2022/06/15 06:00:50;;;;;;;3.80;2.35;;;;;;;23.35;43.51;102120.13;5073439;28;20044;-74
2022/06/15 06:03:16;;;;;;;3.05;2.40;;;;;;;23.33;43.71;102120.28;5063690;28;20052;-74
2022/06/15 06:05:42;;;;;;;2.67;2.22;;;;;;;23.32;43.41;102107.16;5064503;28;20543;-74
2022/06/15 06:08:08;;;;;;;3.85;2.50;;;;;;;23.27;43.53;102120.16;5063595;28;20506;-74
2022/06/15 06:10:34;;;;;;;3.58;2.33;;;;;;;23.33;43.84;102120.28;5064802;28;20088;-74
2022/06/15 06:12:59;;;;;;;4.30;2.30;;;;;;;23.30;43.81;102114.50;5076108;28;20039;-73
2022/06/15 06:15:26;;;;;;;2.75;2.38;;;;;;;23.27;43.98;102113.00;5064124;28;20028;-74
2022/06/15 06:17:51;;;;;;;2.95;2.13;;;;;;;23.33;43.82;102114.97;5064496;28;20035;-74
2022/06/15 06:20:17;;;;;;;2.67;2.28;;;;;;;23.33;43.85;102117.63;5065857;28;20086;-74
2022/06/15 06:22:42;;;;;;;2.63;2.20;;;;;;;23.31;43.79;102114.31;5062395;28;20456;-74
2022/06/15 06:25:08;;;;;;;3.78;2.30;;;;;;;23.30;43.65;102111.81;5064140;27;20102;-74
2022/06/15 06:27:34;;;;;;;4.40;2.50;;;;;;;23.34;43.68;102103.38;5068779;28;21163;-73
2022/06/15 06:30:00;;;;;;;3.05;2.20;;;;;;;23.30;43.65;102110.00;5073483;28;20043;-74
2022/06/15 06:32:25;;;;;;;4.32;2.45;;;;;;;23.33;43.70;102109.66;5072926;28;20106;-74
2022/06/15 06:34:52;;;;;;;3.92;2.65;;;;;;;23.28;44.15;102109.34;5071235;28;20044;-74
2022/06/15 06:37:17;;;;;;;3.58;2.30;;;;;;;23.37;43.71;102116.31;5073256;28;20054;-74
2022/06/15 06:39:43;;;;;;;2.28;1.98;;;;;;;23.38;43.61;102107.31;5074882;28;20047;-74
2022/06/15 06:42:10;;;;;;;2.88;2.10;;;;;;;23.28;43.97;102112.00;5066720;28;20228;-74
2022/06/15 06:44:36;;;;;;;3.22;2.10;;;;;;;23.32;43.65;102112.47;5071786;28;20383;-74
2022/06/15 06:47:02;;;;;;;3.40;2.20;;;;;;;23.36;43.66;102114.66;5072572;28;20039;-73
2022/06/15 06:49:29;;;;;;;4.40;2.30;;;;;;;23.42;43.83;102119.25;5067716;28;21228;-74
2022/06/15 06:51:55;;;;;;;2.90;2.17;;;;;;;23.34;43.70;102115.78;5073616;28;20081;-75
2022/06/15 06:54:22;;;;;;;2.78;1.95;;;;;;;23.37;44.12;102129.59;5073114;28;20139;-74
2022/06/15 06:56:47;;;;;;;3.38;2.25;;;;;;;23.44;43.75;102121.75;5066806;28;20463;-74
2022/06/15 06:59:14;;;;;;;2.20;2.00;;;;;;;23.40;43.78;102125.75;5077517;28;20127;-74
2022/06/15 07:01:42;;;;;;;2.72;2.08;;;;;;;23.44;43.85;102135.88;5064096;28;20782;-74
2022/06/15 07:04:08;;;;;;;2.38;2.03;;;;;;;23.43;43.65;102125.41;5070673;28;20479;-73
2022/06/15 07:06:34;;;;;;;2.60;2.20;;;;;;;23.41;43.69;102132.72;5072249;28;20053;-73
2022/06/15 07:08:59;;;;;;;4.32;2.53;;;;;;;23.40;43.88;102139.88;5075463;28;20028;-74
2022/06/15 07:11:25;;;;;;;5.30;2.25;;;;;;;23.48;43.47;102139.84;5072991;28;21093;-73
2022/06/15 07:13:51;;;;;;;2.35;2.13;;;;;;;23.45;43.84;102136.69;5075472;28;20031;-74
2022/06/15 07:16:19;;;;;;;3.50;2.30;;;;;;;23.47;43.91;102143.50;5063354;28;20032;-75
2022/06/15 07:18:46;;;;;;;4.55;2.00;;;;;;;23.49;43.83;102148.63;5070745;28;20069;-75
2022/06/15 07:21:21;;;;;;;4.63;2.08;;;;;;;23.45;43.77;102150.81;5076496;28;20115;-74
2022/06/15 07:23:49;;;;;;;3.85;2.08;;;;;;;23.56;43.87;102151.47;5074983;28;20149;-74
2022/06/15 07:26:19;;;;;;;2.60;1.95;;;;;;;23.52;43.77;102158.94;5073843;28;20052;-74
2022/06/15 07:28:44;;;;;;;2.60;2.00;;;;;;;23.55;43.84;102152.47;5073261;28;20040;-74
2022/06/15 07:31:19;;;;;;;3.78;2.30;;;;;;;23.55;44.00;102155.13;5074426;28;21398;-75
2022/06/15 07:33:44;;;;;;;4.22;2.35;;;;;;;23.48;44.00;102152.28;5070855;28;20148;-75
2022/06/15 07:36:09;;;;;;;4.10;2.22;;;;;;;23.44;44.68;102165.09;5073193;28;20036;-73
2022/06/15 07:38:35;;;;;;;4.65;2.60;;;;;;;23.54;44.17;102153.47;5075765;28;20094;-73
2022/06/15 07:41:02;;;;;;;4.05;2.50;;;;;;;23.56;44.27;102154.94;5071431;28;20048;-73
2022/06/15 07:43:27;;;;;;;4.20;2.30;;;;;;;23.54;44.32;102150.81;5073689;28;20043;-75
2022/06/15 07:45:53;;;;;;;2.95;2.45;;;;;;;23.46;44.79;102160.44;5074712;28;20403;-75
2022/06/15 07:51:03;;;;;;;5.03;2.30;;;;;;;23.51;44.60;102152.78;5068466;28;20781;-73
2022/06/15 07:53:29;;;;;;;7.05;2.40;;;;;;;23.47;44.80;102159.44;5074980;28;20048;-73
2022/06/15 07:55:56;;;;;;;4.35;2.13;;;;;;;23.52;44.62;102157.13;5071732;28;20062;-72
2022/06/15 07:58:22;;;;;;;3.33;2.15;;;;;;;23.50;44.74;102167.06;5057849;28;20043;-72
2022/06/15 08:00:50;;;;;;;3.63;2.05;;;;;;;23.55;44.71;102165.75;5071425;28;20071;-73
2022/06/15 08:03:17;;;;;;;5.40;2.50;;;;;;;23.51;44.56;102159.91;5073985;28;20117;-73
2022/06/15 08:05:49;;;;;;;4.13;2.30;;;;;;;23.60;44.69;102160.78;5075129;28;20143;-72
2022/06/15 08:08:18;;;;;;;3.45;2.20;;;;;;;23.56;44.35;102154.94;5076046;28;20051;-72
2022/06/15 08:10:43;;;;;;;2.88;2.25;;;;;;;23.60;44.65;102161.59;5072117;28;21257;-73
2022/06/15 08:13:09;;;;;;;2.70;1.95;;;;;;;23.56;44.62;102165.56;5070392;28;20040;-72
2022/06/15 08:15:36;;;;;;;3.78;2.40;;;;;;;23.50;44.66;102156.44;5076307;28;20036;-72
2022/06/15 08:18:13;;;;;;;3.05;2.20;;;;;;;23.54;44.56;102169.41;5061966;28;20045;-72
2022/06/15 08:20:46;;;;;;;7.40;2.38;;;;;;;23.36;45.27;102169.63;5054097;28;20556;-76
2022/06/15 08:23:19;;;;;;;7.80;2.30;;;;;;;23.20;45.74;102167.84;5050838;28;20035;-75
2022/06/15 08:25:56;;;;;;;3.50;2.08;;;;;;;23.35;45.25;102170.63;5077957;28;20067;-76
2022/06/15 08:28:24;;;;;;;2.92;2.10;;;;;;;23.17;45.58;102161.06;5072244;28;20093;-75
2022/06/15 08:30:51;;;;;;;2.75;2.05;;;;;;;23.14;45.19;102157.88;5068313;28;20028;-73
2022/06/15 08:33:17;;;;;;;4.65;2.03;;;;;;;22.95;45.32;102155.59;5068319;28;20067;-73
2022/06/15 08:35:43;;;;;;;5.72;2.67;;;;;;;22.83;45.49;102149.81;5070243;28;20404;-72
2022/06/15 08:38:11;;;;;;;3.40;2.17;;;;;;;22.83;45.73;102155.13;5072122;28;20044;-73
2022/06/15 08:40:49;;;;;;;6.18;2.50;;;;;;;22.91;45.23;102155.09;5064212;28;20039;-74
2022/06/15 08:43:35;;;;;;;3.28;2.20;;;;;;;23.11;45.00;102151.09;5068551;28;20035;-74
2022/06/15 08:46:14;;;;;;;3.80;1.98;;;;;;;23.01;45.43;102150.47;5071316;28;20062;-73
2022/06/15 08:48:58;;;;;;;8.25;2.40;;;;;;;23.00;45.32;102155.94;5069391;28;20066;-72
2022/06/15 08:51:44;;;;;;;4.53;2.33;;;;;;;23.02;45.21;102160.09;5068449;28;20037;-73
2022/06/15 08:54:20;;;;;;;5.03;2.35;;;;;;;23.01;45.15;102149.63;5074322;28;20040;-71
2022/06/15 08:56:54;;;;;;;5.88;2.00;;;;;;;22.92;45.26;102140.81;5069469;28;20078;-74
2022/06/15 08:59:29;;;;;;;2.67;2.17;;;;;;;23.02;45.22;102148.63;5073854;28;20043;-73
2022/06/15 09:02:08;;;;;;;3.67;2.08;;;;;;;23.01;45.24;102149.63;5073556;28;20032;-74
2022/06/15 09:04:47;;;;;;;2.95;2.20;;;;;;;22.95;45.22;102152.94;5072103;28;20064;-74
2022/06/15 09:07:31;;;;;;;2.10;1.98;;;;;;;22.95;45.13;102148.44;5075041;28;20055;-73
2022/06/15 09:10:18;;;;;;;5.57;2.40;;;;;;;22.98;45.32;102148.13;5070143;28;20075;-71
2022/06/15 09:12:59;;;;;;;4.65;2.22;;;;;;;23.78;44.29;102150.72;5062506;28;20354;-69
2022/06/15 09:15:33;;;;;;;2.20;1.85;;;;;;;24.39;43.43;102149.84;5054222;28;20149;-68
2022/06/15 09:18:14;;;;;;;3.70;2.40;;;;;;;24.54;43.12;102147.22;5066288;28;20048;-67
2022/06/15 09:20:55;;;;;;;2.67;2.17;;;;;;;24.69;42.98;102150.75;5068548;28;20044;-70
2022/06/15 09:23:29;;;;;;;2.88;2.30;;;;;;;24.75;42.85;102145.72;5076181;28;20046;-70
2022/06/15 09:26:06;;;;;;;5.80;2.70;;;;;;;24.83;42.50;102140.31;5070804;28;20043;-71
2022/06/15 09:28:37;;;;;;;4.22;2.20;;;;;;;24.74;42.62;102152.06;5026807;28;20515;-74
2022/06/15 09:31:09;;;;;;;2.95;2.22;;;;;;;24.68;42.72;102150.94;5060580;28;20032;-73
2022/06/15 09:33:47;;;;;;;3.53;2.25;;;;;;;24.74;42.45;102150.22;5069839;28;20040;-73
2022/06/15 09:36:18;;;;;;;1.92;1.65;;;;;;;24.78;42.32;102146.19;5034458;28;20555;-73
2022/06/15 09:38:44;;;;;;;2.38;2.03;;;;;;;24.95;42.24;102137.00;5074540;28;20078;-74
2022/06/15 09:41:20;;;;;;;3.42;1.95;;;;;;;24.90;42.20;102127.91;5035480;28;20535;-73
2022/06/15 09:44:04;;;;;;;6.18;2.55;;;;;;;25.08;42.01;102138.25;5067810;28;20482;-69
2022/06/15 09:46:38;;;;;;;3.80;2.30;;;;;;;25.29;41.53;102136.50;5014406;28;21399;-73
2022/06/15 09:49:41;;;;;;;3.08;2.03;;;;;;;25.40;41.32;102129.06;5048645;28;20090;-73
2022/06/15 09:52:26;;;;;;;2.38;2.05;;;;;;;25.53;41.22;102127.41;5024603;28;20073;-67
2022/06/15 09:55:13;;;;;;;2.63;1.98;;;;;;;25.46;41.49;102136.31;5070574;28;20147;-72
2022/06/15 09:57:41;;;;;;;3.90;2.15;;;;;;;25.51;41.48;102132.09;5029583;28;20732;-71
2022/06/15 10:00:10;;;;;;;2.30;2.05;;;;;;;25.57;41.33;102134.00;5070370;28;20732;-72
2022/06/15 10:02:42;;;;;;;3.00;2.08;;;;;;;25.59;41.03;102139.16;5035263;28;20500;-71
2022/06/15 10:05:21;;;;;;;3.72;2.10;;;;;;;25.64;40.93;102136.75;5060429;28;20481;-72
2022/06/15 10:07:47;;;;;;;2.47;1.90;;;;;;;25.69;40.88;102130.91;5071165;28;20427;-72
2022/06/15 10:10:21;;;;;;;1.83;1.73;;;;;;;25.66;40.77;102129.38;5027419;28;20048;-71
2022/06/15 10:12:59;;;;;;;2.08;1.80;;;;;;;25.69;40.76;102123.72;5070229;28;20043;-71
2022/06/15 10:15:40;;;;;;;3.90;1.95;;;;;;;25.64;40.91;102123.41;5030965;28;20063;-72
2022/06/15 10:18:21;;;;;;;6.25;1.95;;;;;;;25.52;41.00;102116.91;5066271;28;20098;-74
2022/06/15 10:21:13;;;;;;;2.67;2.00;;;;;;;25.38;41.54;102121.25;5006467;28;20032;-74
2022/06/15 10:24:03;;;;;;;4.15;2.35;;;;;;;25.29;41.69;102117.84;5071427;28;20401;-74
2022/06/15 10:26:28;;;;;;;2.67;2.00;;;;;;;25.28;41.81;102123.34;5029884;28;20420;-74
2022/06/15 10:28:55;;;;;;;3.53;1.88;;;;;;;25.25;41.67;102107.75;5065973;28;20088;-74
2022/06/15 10:31:32;;;;;;;4.30;2.03;;;;;;;25.28;41.83;102112.69;5042699;28;20052;-74
2022/06/15 10:34:18;;;;;;;2.72;1.90;;;;;;;25.27;41.90;102100.38;5066652;28;20090;-71
2022/06/15 10:36:44;;;;;;;2.65;1.90;;;;;;;25.27;41.59;102100.38;5034624;28;20408;-74
2022/06/15 10:39:22;;;;;;;3.25;1.85;;;;;;;25.29;41.80;102101.03;5073059;28;20101;-74
2022/06/15 10:41:48;;;;;;;4.70;2.40;;;;;;;25.25;41.82;102099.75;5046874;28;20717;-74
2022/06/15 10:44:18;;;;;;;3.50;1.90;;;;;;;25.32;41.70;102099.84;5077760;28;20031;-74
2022/06/15 10:47:07;;;;;;;4.47;2.22;;;;;;;25.27;41.63;102109.22;5038530;28;20722;-74
2022/06/15 10:49:35;;;;;;;2.83;2.00;;;;;;;25.29;41.82;102109.00;5076496;28;20043;-74
2022/06/15 10:52:14;;;;;;;2.50;2.17;;;;;;;25.28;41.86;102102.03;5047489;28;20047;-74
2022/06/15 11:03:25;;;;;;;3.08;2.10;;;;;;;25.28;41.83;102105.53;5078804;28;20035;-74
2022/06/15 11:05:54;;;;;;;1.80;1.70;;;;;;;25.27;41.44;102103.88;5053002;28;20048;-74
2022/06/15 11:08:24;;;;;;;3.93;2.07;;;;;;;25.30;41.61;102090.16;5076020;28;20050;-74
2022/06/15 11:11:07;;;;;;;8.35;2.10;;;;;;;25.28;41.59;102097.53;5041506;28;20473;-74
2022/06/15 11:13:40;;;;;;;4.55;2.15;;;;;;;25.28;41.45;102096.69;5069605;28;20071;-74
2022/06/15 11:19:26;;;;;;;3.05;2.25;;;;;;;25.44;41.48;102091.16;5040284;28;20047;-74
2022/06/15 11:22:03;;;;;;;2.70;1.83;;;;;;;25.42;41.30;102085.19;5042379;28;20109;-74
2022/06/15 11:24:45;;;;;;;2.67;1.50;;;;;;;25.54;41.13;102085.56;5057364;28;20492;-74
2022/06/15 11:27:19;;;;;;;2.55;2.08;;;;;;;25.59;40.74;102089.28;5039615;28;20032;-74
2022/06/15 11:30:16;;;;;;;2.00;1.80;;;;;;;25.62;40.79;102082.75;5074187;28;20040;-74
2022/06/15 11:32:53;;;;;;;2.40;1.90;;;;;;;25.63;40.72;102088.91;5049250;28;20101;-74
2022/06/15 11:35:27;;;;;;;2.88;1.92;;;;;;;25.58;40.75;102089.50;5079258;28;20024;-74
2022/06/15 11:37:57;;;;;;;3.20;2.05;;;;;;;25.50;41.06;102093.09;5043510;28;20486;-74
2022/06/15 11:40:41;;;;;;;2.63;2.15;;;;;;;25.45;41.22;102084.81;5078616;28;20040;-74
2022/06/15 11:43:30;;;;;;;2.22;1.73;;;;;;;25.45;41.21;102084.00;5017699;28;20087;-74
2022/06/15 11:46:18;;;;;;;2.40;1.98;;;;;;;25.42;41.43;102084.38;5077346;28;20478;-74
2022/06/15 11:49:19;;;;;;;2.38;1.90;;;;;;;25.41;41.30;102083.53;5043296;28;20181;-74
2022/06/15 11:52:24;;;;;;;3.10;1.90;;;;;;;25.40;41.46;102083.72;5067825;28;20086;-74
2022/06/15 11:55:14;;;;;;;2.20;2.00;;;;;;;25.40;41.33;102086.41;5059458;28;20108;-74
2022/06/15 11:57:55;;;;;;;2.83;1.98;;;;;;;25.38;41.53;102083.91;5043376;28;27491;-74
2022/06/15 12:00:31;;;;;;;2.15;1.85;;;;;;;25.38;41.20;102091.09;5057713;28;20537;-74
2022/06/15 12:03:29;;;;;;;3.13;1.90;;;;;;;25.35;41.77;102083.47;5074894;28;20074;-74
2022/06/15 12:05:56;;;;;;;3.08;2.00;;;;;;;25.37;41.61;102084.94;5056088;28;20040;-73
2022/06/15 12:08:43;;;;;;;2.25;1.95;;;;;;;25.37;41.43;102087.59;5069830;28;20040;-73